createdAt,value
2024-05-09T00:02:02.133Z,2.30
2024-05-09T00:04:34.963Z,2.60
2024-05-09T00:07:07.586Z,2.20
2024-05-09T00:09:40.346Z,2.80
2024-05-09T00:12:13.098Z,2.70
2024-05-09T00:14:46.431Z,2.40
2024-05-09T00:17:19.137Z,2.40
2024-05-09T00:19:51.881Z,2.40
2024-05-09T00:22:24.644Z,3.10
2024-05-09T00:24:57.296Z,3.00
2024-05-09T00:27:29.871Z,2.50
2024-05-09T00:30:04.122Z,1.80
2024-05-09T00:32:37.057Z,2.00
2024-05-09T00:35:10.439Z,1.00
2024-05-09T00:37:43.114Z,1.70
2024-05-09T00:40:22.938Z,1.80
2024-05-09T00:43:03.582Z,2.00
2024-05-09T00:45:36.478Z,2.10
2024-05-09T00:48:11.571Z,2.00
2024-05-09T00:50:47.456Z,2.40
2024-05-09T00:53:21.541Z,2.00
2024-05-09T00:55:54.605Z,1.20
2024-05-09T00:58:27.970Z,1.30
2024-05-09T01:01:01.962Z,2.40
2024-05-09T01:03:34.697Z,1.10
2024-05-09T01:06:07.776Z,1.30
2024-05-09T01:08:40.539Z,1.30
2024-05-09T01:11:13.238Z,1.60
2024-05-09T01:13:46.453Z,1.80
2024-05-09T01:16:19.243Z,1.50
2024-05-09T01:18:52.371Z,2.00
2024-05-09T01:21:25.108Z,2.40
2024-05-09T01:23:57.899Z,3.40
2024-05-09T01:26:31.173Z,3.40
2024-05-09T01:29:03.835Z,4.30
2024-05-09T01:31:36.642Z,3.10
2024-05-09T01:34:09.320Z,3.50
2024-05-09T01:36:42.066Z,3.60
2024-05-09T01:39:15.037Z,3.00
2024-05-09T01:41:47.598Z,3.70
2024-05-09T01:44:20.693Z,3.70
2024-05-09T01:46:53.514Z,2.80
2024-05-09T01:49:26.437Z,2.60
2024-05-09T01:51:59.267Z,3.70
2024-05-09T01:54:31.807Z,2.70
2024-05-09T01:57:04.307Z,2.90
2024-05-09T01:59:36.777Z,3.20
2024-05-09T02:02:09.576Z,2.40
2024-05-09T02:04:42.533Z,3.00
2024-05-09T02:07:15.230Z,2.80
2024-05-09T02:09:47.853Z,3.50
2024-05-09T02:12:20.630Z,3.00
2024-05-09T02:14:54.421Z,3.60
2024-05-09T02:17:27.404Z,2.80
2024-05-09T02:20:00.390Z,2.90
2024-05-09T02:22:33.018Z,2.50
2024-05-09T02:25:05.816Z,3.40
2024-05-09T02:27:38.644Z,3.10
2024-05-09T02:30:19.083Z,2.70
2024-05-09T02:32:59.152Z,3.40
2024-05-09T02:35:32.267Z,3.00
2024-05-09T02:38:05.810Z,2.40
2024-05-09T02:40:39.906Z,2.60
2024-05-09T02:43:14.668Z,2.60
2024-05-09T02:45:47.682Z,2.10
2024-05-09T02:48:20.699Z,2.40
2024-05-09T02:50:53.858Z,2.20
2024-05-09T02:53:26.833Z,2.40
2024-05-09T02:55:59.654Z,2.10
2024-05-09T02:58:32.319Z,2.30
2024-05-09T03:01:05.439Z,1.70
2024-05-09T03:03:38.254Z,2.00
2024-05-09T03:06:11.040Z,3.00
2024-05-09T03:08:47.129Z,2.60
2024-05-09T03:11:26.885Z,2.00
2024-05-09T03:14:00.268Z,1.70
2024-05-09T03:16:33.637Z,1.20
2024-05-09T03:19:06.824Z,3.00
2024-05-09T03:21:42.576Z,1.50
2024-05-09T03:24:15.583Z,1.60
2024-05-09T03:26:48.751Z,1.30
2024-05-09T03:29:22.445Z,1.40
2024-05-09T03:31:55.730Z,1.70
2024-05-09T03:34:28.484Z,1.60
2024-05-09T03:37:01.386Z,1.60
2024-05-09T03:39:34.401Z,1.30
2024-05-09T03:42:08.424Z,1.90
2024-05-09T03:44:41.797Z,2.40
2024-05-09T03:47:14.493Z,1.40
2024-05-09T03:49:48.006Z,1.30
2024-05-09T03:52:21.005Z,2.90
2024-05-09T03:54:54.323Z,1.80
2024-05-09T03:57:26.931Z,1.20
2024-05-09T03:59:59.799Z,0.70
2024-05-09T04:02:32.772Z,1.10
2024-05-09T04:05:06.656Z,0.90
2024-05-09T04:07:40.661Z,0.90
2024-05-09T04:10:21.149Z,1.30
2024-05-09T04:13:01.303Z,1.50
2024-05-09T04:15:34.761Z,1.20
2024-05-09T04:18:08.760Z,0.70
2024-05-09T04:20:42.065Z,1.10
2024-05-09T04:23:15.714Z,1.20
2024-05-09T04:25:49.194Z,0.90
2024-05-09T04:28:24.194Z,1.50
2024-05-09T04:33:28.294Z,0.80
2024-05-09T04:36:01.267Z,1.00
2024-05-09T04:38:34.319Z,0.80
2024-05-09T04:41:08.488Z,1.20
2024-05-09T04:43:41.682Z,1.50
2024-05-09T04:46:14.400Z,1.30
2024-05-09T04:48:47.446Z,0.70
2024-05-09T04:51:20.135Z,1.80
2024-05-09T04:53:53.175Z,1.30
2024-05-09T04:56:26.029Z,1.20
2024-05-09T04:58:59.066Z,1.40
2024-05-09T05:01:31.947Z,0.50
2024-05-09T05:04:05.509Z,1.20
2024-05-09T05:06:38.640Z,1.80
2024-05-09T05:09:11.656Z,8.40
2024-05-09T05:11:44.533Z,22.20
2024-05-09T05:14:17.314Z,0.70
2024-05-09T05:16:50.276Z,0.60
2024-05-09T05:19:23.113Z,1.50
2024-05-09T05:21:56.279Z,1.40
2024-05-09T05:24:29.397Z,0.90
2024-05-09T05:27:02.012Z,1.10
2024-05-09T05:29:35.203Z,1.00
2024-05-09T05:32:09.992Z,2.60
2024-05-09T05:34:42.785Z,18.60
2024-05-09T05:37:15.411Z,1.00
2024-05-09T05:39:48.811Z,1.80
2024-05-09T05:42:21.376Z,1.80
2024-05-09T05:44:53.940Z,2.00
2024-05-09T05:47:26.685Z,0.90
2024-05-09T05:49:59.715Z,1.50
2024-05-09T05:52:32.649Z,0.70
2024-05-09T05:55:05.547Z,0.80
2024-05-09T05:57:38.247Z,0.90
2024-05-09T06:00:21.389Z,1.70
2024-05-09T06:02:58.781Z,0.50
2024-05-09T06:05:31.693Z,1.00
2024-05-09T06:08:04.466Z,1.60
2024-05-09T06:10:39.902Z,0.90
2024-05-09T06:13:14.688Z,0.50
2024-05-09T06:18:18.657Z,1.40
2024-05-09T06:20:52.749Z,2.00
2024-05-09T06:23:26.080Z,1.40
2024-05-09T06:25:58.707Z,1.90
2024-05-09T06:28:31.301Z,1.10
2024-05-09T06:31:05.253Z,0.70
2024-05-09T06:33:38.954Z,0.60
2024-05-09T06:36:12.022Z,0.90
2024-05-09T06:38:44.748Z,1.40
2024-05-09T06:41:17.596Z,1.00
2024-05-09T06:43:50.362Z,1.10
2024-05-09T06:46:23.015Z,1.10
2024-05-09T06:48:55.889Z,1.00
2024-05-09T06:51:29.133Z,1.40
2024-05-09T06:54:01.711Z,1.20
2024-05-09T06:56:34.751Z,1.30
2024-05-09T06:59:07.496Z,0.70
2024-05-09T07:01:40.643Z,1.10
2024-05-09T07:04:13.709Z,1.00
2024-05-09T07:06:46.463Z,1.20
2024-05-09T07:09:19.535Z,0.90
2024-05-09T07:11:52.580Z,0.60
2024-05-09T07:14:25.308Z,1.60
2024-05-09T07:16:58.009Z,1.00
2024-05-09T07:19:30.877Z,1.30
2024-05-09T07:22:03.604Z,1.70
2024-05-09T07:24:37.792Z,1.20
2024-05-09T07:27:10.781Z,1.00
2024-05-09T07:29:44.680Z,0.80
2024-05-09T07:32:17.484Z,1.10
2024-05-09T07:34:50.439Z,1.10
2024-05-09T07:37:22.968Z,0.90
2024-05-09T07:39:55.543Z,1.30
2024-05-09T07:42:28.050Z,0.80
2024-05-09T07:45:20.602Z,0.40
2024-05-09T07:49:43.644Z,1.00
2024-05-09T07:53:38.898Z,0.60
2024-05-09T07:56:14.269Z,0.60
2024-05-09T07:58:47.439Z,0.70
2024-05-09T08:01:21.286Z,0.70
2024-05-09T08:03:54.413Z,0.50
2024-05-09T08:06:27.663Z,0.50
2024-05-09T08:09:05.263Z,1.10
2024-05-09T08:11:40.944Z,0.50
2024-05-09T08:14:13.379Z,0.70
2024-05-09T08:16:46.574Z,1.30
2024-05-09T08:19:19.167Z,0.30
2024-05-09T08:21:52.066Z,0.70
2024-05-09T08:24:24.592Z,0.40
2024-05-09T08:26:57.336Z,0.60
2024-05-09T08:29:30.913Z,0.70
2024-05-09T08:32:03.386Z,0.60
2024-05-09T08:34:36.123Z,0.60
2024-05-09T08:37:13.252Z,0.70
2024-05-09T08:39:52.401Z,0.50
2024-05-09T08:42:26.354Z,1.20
2024-05-09T08:44:59.484Z,0.50
2024-05-09T08:47:34.421Z,0.60
2024-05-09T08:50:16.573Z,0.40
2024-05-09T08:52:57.475Z,0.60
2024-05-09T08:55:30.056Z,0.80
2024-05-09T08:58:04.096Z,0.40
2024-05-09T09:00:37.844Z,0.60
2024-05-09T09:03:13.348Z,0.60
2024-05-09T09:05:50.657Z,1.30
2024-05-09T09:08:23.435Z,0.70
2024-05-09T09:10:57.652Z,1.00
2024-05-09T09:13:30.817Z,0.80
2024-05-09T09:16:03.759Z,0.60
2024-05-09T09:18:36.942Z,0.60
2024-05-09T09:21:13.028Z,0.90
2024-05-09T09:23:46.405Z,1.40
2024-05-09T09:26:22.487Z,0.70
2024-05-09T09:28:55.150Z,1.40
2024-05-09T09:31:28.099Z,1.10
2024-05-09T09:34:06.350Z,0.40
2024-05-09T09:36:39.309Z,0.70
2024-05-09T09:39:12.536Z,0.80
2024-05-09T09:41:47.494Z,0.60
2024-05-09T09:44:20.133Z,1.20
2024-05-09T09:46:53.196Z,0.50
2024-05-09T09:49:26.330Z,0.30
2024-05-09T09:51:59.190Z,0.50
2024-05-09T09:54:32.481Z,0.50
2024-05-09T09:57:06.840Z,0.50
2024-05-09T09:59:39.951Z,0.40
2024-05-09T10:02:15.302Z,0.60
2024-05-09T10:04:48.348Z,0.70
2024-05-09T10:07:22.708Z,0.50
2024-05-09T10:09:59.296Z,0.70
2024-05-09T10:12:31.983Z,0.40
2024-05-09T10:15:10.312Z,0.80
2024-05-09T10:17:52.582Z,0.50
2024-05-09T10:20:30.812Z,0.90
2024-05-09T10:23:05.506Z,0.40
2024-05-09T10:25:38.042Z,1.00
2024-05-09T10:28:13.940Z,0.40
2024-05-09T10:30:48.934Z,0.60
2024-05-09T10:35:56.047Z,0.70
2024-05-09T10:38:29.256Z,0.80
2024-05-09T10:41:03.091Z,0.60
2024-05-09T10:43:37.491Z,0.70
2024-05-09T10:46:11.184Z,0.60
2024-05-09T10:48:45.956Z,0.90
2024-05-09T10:51:20.189Z,0.80
2024-05-09T10:53:52.730Z,1.70
2024-05-09T10:56:25.400Z,0.90
2024-05-09T10:58:57.958Z,0.50
2024-05-09T11:01:30.581Z,1.20
2024-05-09T11:04:04.399Z,0.90
2024-05-09T11:06:38.586Z,0.50
2024-05-09T11:09:11.285Z,0.80
2024-05-09T11:11:44.488Z,1.30
2024-05-09T11:14:17.434Z,1.00
2024-05-09T11:16:50.106Z,1.70
2024-05-09T11:19:22.742Z,2.50
2024-05-09T11:21:55.686Z,1.20
2024-05-09T11:24:28.375Z,1.30
2024-05-09T11:27:01.950Z,1.00
2024-05-09T11:29:44.903Z,0.90
2024-05-09T11:32:18.237Z,0.80
2024-05-09T11:34:51.074Z,1.50
2024-05-09T11:37:24.087Z,1.10
2024-05-09T11:39:56.744Z,0.60
2024-05-09T11:42:29.405Z,0.70
2024-05-09T11:45:01.808Z,0.80
2024-05-09T11:47:34.836Z,1.10
2024-05-09T11:50:12.914Z,0.80
2024-05-09T11:52:48.763Z,0.70
2024-05-09T11:55:26.771Z,0.60
2024-05-09T11:58:00.618Z,0.80
2024-05-09T12:00:37.149Z,0.90
2024-05-09T12:03:10.758Z,0.70
2024-05-09T12:05:43.656Z,0.60
2024-05-09T12:08:16.594Z,1.10
2024-05-09T12:10:49.928Z,0.70
2024-05-09T12:13:23.054Z,1.50
2024-05-09T12:15:57.020Z,0.90
2024-05-09T12:18:29.693Z,1.10
2024-05-09T12:21:02.487Z,0.80
2024-05-09T12:23:35.204Z,0.70
2024-05-09T12:26:08.145Z,1.90
2024-05-09T12:28:40.820Z,1.20
2024-05-09T12:31:13.601Z,1.80
2024-05-09T12:33:47.271Z,1.60
2024-05-09T12:36:20.073Z,1.40
2024-05-09T12:38:52.607Z,1.70
2024-05-09T12:41:25.241Z,1.20
2024-05-09T12:43:57.863Z,2.10
2024-05-09T12:46:32.015Z,3.90
2024-05-09T12:49:04.981Z,5.50
2024-05-09T12:51:38.397Z,1.50
2024-05-09T12:54:11.174Z,2.00
2024-05-09T12:56:43.934Z,1.40
2024-05-09T12:59:16.855Z,1.50
2024-05-09T13:01:49.456Z,2.10
2024-05-09T13:04:22.231Z,1.20
2024-05-09T13:06:55.034Z,0.90
2024-05-09T13:09:27.931Z,1.30
2024-05-09T13:12:00.886Z,1.50
2024-05-09T13:14:33.616Z,2.10
2024-05-09T13:17:06.488Z,0.50
2024-05-09T13:19:39.003Z,1.70
2024-05-09T13:22:11.576Z,1.00
2024-05-09T13:24:44.700Z,0.70
2024-05-09T13:27:17.377Z,1.30
2024-05-09T13:29:50.465Z,1.20
2024-05-09T13:32:23.307Z,1.10
2024-05-09T13:34:56.252Z,0.60
2024-05-09T13:37:29.185Z,0.90
2024-05-09T13:40:02.264Z,1.10
2024-05-09T13:42:34.950Z,1.00
2024-05-09T13:45:08.755Z,2.00
2024-05-09T13:47:41.831Z,1.20
2024-05-09T13:50:23.633Z,1.50
2024-05-09T13:53:05.798Z,1.50
2024-05-09T13:55:40.894Z,3.00
2024-05-09T13:58:13.850Z,1.50
2024-05-09T14:00:49.015Z,1.10
2024-05-09T14:03:22.568Z,2.70
2024-05-09T14:05:55.983Z,1.00
2024-05-09T14:08:29.011Z,1.20
2024-05-09T14:11:01.912Z,1.00
2024-05-09T14:13:34.700Z,0.60
2024-05-09T14:16:09.312Z,0.80
2024-05-09T14:18:42.121Z,1.70
2024-05-09T14:21:14.758Z,2.10
2024-05-09T14:23:47.241Z,1.30
2024-05-09T14:26:20.077Z,2.20
2024-05-09T14:28:53.057Z,3.00
2024-05-09T14:31:25.811Z,1.70
2024-05-09T14:33:58.498Z,1.30
2024-05-09T14:36:33.287Z,3.40
2024-05-09T14:39:06.059Z,3.40
2024-05-09T14:41:39.125Z,1.60
2024-05-09T14:44:12.750Z,1.30
2024-05-09T14:46:45.772Z,1.50
2024-05-09T14:49:18.603Z,0.90
2024-05-09T14:51:51.657Z,1.10
2024-05-09T14:54:24.275Z,2.50
2024-05-09T14:56:58.170Z,2.90
2024-05-09T14:59:30.981Z,6.90
2024-05-09T15:02:03.635Z,2.40
2024-05-09T15:04:36.500Z,4.60
2024-05-09T15:07:11.587Z,3.00
2024-05-09T15:09:44.381Z,3.50
2024-05-09T15:12:17.295Z,1.50
2024-05-09T15:14:49.942Z,3.00
2024-05-09T15:17:22.677Z,2.80
2024-05-09T15:19:55.477Z,2.90
2024-05-09T15:22:28.094Z,3.80
2024-05-09T15:25:00.875Z,3.00
2024-05-09T15:27:33.404Z,5.60
2024-05-09T15:30:10.341Z,3.50
2024-05-09T15:32:43.329Z,6.00
2024-05-09T15:35:16.228Z,6.40
2024-05-09T15:37:49.078Z,3.20
2024-05-09T15:40:30.925Z,4.00
2024-05-09T15:43:11.634Z,3.90
2024-05-09T15:45:44.613Z,6.50
2024-05-09T15:48:17.219Z,8.50
2024-05-09T15:50:50.326Z,6.10
2024-05-09T15:53:23.037Z,7.10
2024-05-09T15:55:55.602Z,9.30
2024-05-09T15:58:28.275Z,6.80
2024-05-09T16:01:01.185Z,4.50
2024-05-09T16:03:34.257Z,6.40
2024-05-09T16:06:07.439Z,7.30
2024-05-09T16:08:40.338Z,2.10
2024-05-09T16:11:16.803Z,1.60
2024-05-09T16:16:21.088Z,4.30
2024-05-09T16:18:53.746Z,2.10
2024-05-09T16:21:26.350Z,2.70
2024-05-09T16:24:00.052Z,2.10
2024-05-09T16:26:32.753Z,1.50
2024-05-09T16:29:05.438Z,2.50
2024-05-09T16:31:38.287Z,6.00
2024-05-09T16:34:10.925Z,6.80
2024-05-09T16:36:44.256Z,5.40
2024-05-09T16:39:18.489Z,5.30
2024-05-09T16:41:51.705Z,4.60
2024-05-09T16:44:24.213Z,8.20
2024-05-09T16:46:56.807Z,2.50
2024-05-09T16:49:30.136Z,1.80
2024-05-09T16:52:03.162Z,1.60
2024-05-09T16:54:35.887Z,1.50
2024-05-09T16:57:09.374Z,2.30
2024-05-09T16:59:42.015Z,2.10
2024-05-09T17:02:14.926Z,2.10
2024-05-09T17:04:47.729Z,2.10
2024-05-09T17:07:22.646Z,2.50
2024-05-09T17:09:55.621Z,4.20
2024-05-09T17:12:28.602Z,2.80
2024-05-09T17:15:01.409Z,3.30
2024-05-09T17:17:34.593Z,3.30
2024-05-09T17:20:15.584Z,3.70
2024-05-09T17:22:56.058Z,3.00
2024-05-09T17:25:29.130Z,2.80
2024-05-09T17:28:07.899Z,2.90
2024-05-09T17:30:42.760Z,3.40
2024-05-09T17:33:16.447Z,3.20
2024-05-09T17:35:51.391Z,3.00
2024-05-09T17:38:24.268Z,3.30
2024-05-09T17:40:57.956Z,3.50
2024-05-09T17:43:30.948Z,4.30
2024-05-09T17:46:03.805Z,6.50
2024-05-09T17:48:36.828Z,4.70
2024-05-09T17:51:10.058Z,5.60
2024-05-09T17:53:42.566Z,5.60
2024-05-09T17:56:15.274Z,4.10
2024-05-09T17:58:49.053Z,5.00
2024-05-09T18:01:22.090Z,7.40
2024-05-09T18:03:55.193Z,7.20
2024-05-09T18:06:28.171Z,4.60
2024-05-09T18:09:00.718Z,5.70
2024-05-09T18:11:36.102Z,4.30
2024-05-09T18:14:09.192Z,3.80
2024-05-09T18:16:42.287Z,3.20
2024-05-09T18:19:15.396Z,3.40
2024-05-09T18:21:48.066Z,2.40
2024-05-09T18:24:22.293Z,2.40
2024-05-09T18:26:55.023Z,3.50
2024-05-09T18:29:27.558Z,3.40
2024-05-09T18:32:00.183Z,3.80
2024-05-09T18:34:33.033Z,4.60
2024-05-09T18:37:06.358Z,5.50
2024-05-09T18:39:38.869Z,5.20
2024-05-09T18:42:11.503Z,5.40
2024-05-09T18:44:44.028Z,6.30
2024-05-09T18:47:19.881Z,5.80
2024-05-09T18:49:53.031Z,6.30
2024-05-09T18:52:25.969Z,5.90
2024-05-09T18:54:58.649Z,6.70
2024-05-09T18:57:31.684Z,6.90
2024-05-09T19:00:05.760Z,6.80
2024-05-09T19:02:38.914Z,6.60
2024-05-09T19:05:12.008Z,4.40
2024-05-09T19:07:44.991Z,5.30
2024-05-09T19:10:22.714Z,5.10
2024-05-09T19:12:58.783Z,4.80
2024-05-09T19:15:31.358Z,4.30
2024-05-09T19:18:04.077Z,3.60
2024-05-09T19:20:37.664Z,6.50
2024-05-09T19:23:11.846Z,5.70
2024-05-09T19:25:44.744Z,4.90
2024-05-09T19:28:17.544Z,5.40
2024-05-09T19:30:50.373Z,6.30
2024-05-09T19:33:23.254Z,4.80
2024-05-09T19:35:55.797Z,4.00
2024-05-09T19:38:28.361Z,6.10
2024-05-09T19:41:01.916Z,4.30
2024-05-09T19:43:35.967Z,2.20
2024-05-09T19:46:09.137Z,2.00
2024-05-09T19:48:41.832Z,2.50
2024-05-09T19:51:14.587Z,2.30
2024-05-09T19:53:47.254Z,2.40
2024-05-09T19:56:19.896Z,2.70
2024-05-09T19:58:52.597Z,2.50
2024-05-09T20:01:25.236Z,3.20
2024-05-09T20:03:59.361Z,3.90
2024-05-09T20:06:32.228Z,3.50
2024-05-09T20:09:04.943Z,3.30
2024-05-09T20:11:38.969Z,3.60
2024-05-09T20:14:11.616Z,4.00
2024-05-09T20:16:44.532Z,4.70
2024-05-09T20:19:17.236Z,4.00
2024-05-09T20:21:50.285Z,5.40
2024-05-09T20:24:22.804Z,5.30
2024-05-09T20:26:55.356Z,4.80
2024-05-09T20:29:27.924Z,5.60
2024-05-09T20:32:00.644Z,5.00
2024-05-09T20:34:33.308Z,4.20
2024-05-09T20:37:06.129Z,4.30
2024-05-09T20:39:38.937Z,4.00
2024-05-09T20:42:11.606Z,5.70
2024-05-09T20:44:45.295Z,4.80
2024-05-09T20:47:18.756Z,4.00
2024-05-09T20:49:51.675Z,5.60
2024-05-09T20:52:24.415Z,5.10
2024-05-09T20:54:56.951Z,4.90
2024-05-09T20:57:29.764Z,5.40
2024-05-09T21:00:02.556Z,5.10
2024-05-09T21:02:38.586Z,4.80
2024-05-09T21:05:12.452Z,5.20
2024-05-09T21:07:45.147Z,5.20
2024-05-09T21:10:22.415Z,5.20
2024-05-09T21:12:55.767Z,4.30
2024-05-09T21:15:28.326Z,3.40
2024-05-09T21:18:00.900Z,2.70
2024-05-09T21:20:35.308Z,1.80
2024-05-09T21:23:08.364Z,2.00
2024-05-09T21:25:41.108Z,1.60
2024-05-09T21:28:16.838Z,1.60
2024-05-09T21:30:49.484Z,2.00
2024-05-09T21:33:22.206Z,1.40
2024-05-09T21:35:55.739Z,1.70
2024-05-09T21:38:30.795Z,2.60
2024-05-09T21:41:03.661Z,2.10
2024-05-09T21:43:39.051Z,1.60
2024-05-09T21:46:11.695Z,1.60
2024-05-09T21:48:44.400Z,1.80
2024-05-09T21:51:20.018Z,2.40
2024-05-09T21:53:52.624Z,1.80
2024-05-09T21:56:25.108Z,1.50
2024-05-09T21:58:57.651Z,1.60
2024-05-09T22:01:30.618Z,1.40
2024-05-09T22:04:03.408Z,1.10
2024-05-09T22:06:36.139Z,1.70
2024-05-09T22:09:08.691Z,1.30
2024-05-09T22:11:41.271Z,1.60
2024-05-09T22:14:13.948Z,1.50
2024-05-09T22:16:47.107Z,1.20
2024-05-09T22:19:20.077Z,1.00
2024-05-09T22:21:52.847Z,2.00
2024-05-09T22:24:25.524Z,1.60
2024-05-09T22:26:58.137Z,1.40
2024-05-09T22:29:30.959Z,2.40
2024-05-09T22:32:03.841Z,1.90
2024-05-09T22:34:36.572Z,1.50
2024-05-09T22:37:09.686Z,1.70
2024-05-09T22:39:42.748Z,1.50
2024-05-09T22:42:15.321Z,1.40
2024-05-09T22:44:49.040Z,1.20
2024-05-09T22:47:22.066Z,1.50
2024-05-09T22:49:54.739Z,1.40
2024-05-09T22:52:27.182Z,1.90
2024-05-09T22:54:59.762Z,1.30
2024-05-09T22:57:32.423Z,1.60
2024-05-09T23:00:07.919Z,1.20
2024-05-09T23:02:42.580Z,1.60
2024-05-09T23:05:15.791Z,1.20
2024-05-09T23:07:48.500Z,1.30
2024-05-09T23:10:28.034Z,1.30
2024-05-09T23:13:08.379Z,1.80
2024-05-09T23:15:41.433Z,1.70
2024-05-09T23:18:14.094Z,2.30
2024-05-09T23:20:46.700Z,1.90
2024-05-09T23:23:20.596Z,2.70
2024-05-09T23:25:54.037Z,2.90
2024-05-09T23:28:26.834Z,2.60
2024-05-09T23:30:59.720Z,2.80
2024-05-09T23:33:32.584Z,2.60
2024-05-09T23:36:05.572Z,2.40
2024-05-09T23:38:38.150Z,2.10
2024-05-09T23:41:10.717Z,2.80
2024-05-09T23:43:43.531Z,2.60
2024-05-09T23:46:16.109Z,2.20
2024-05-09T23:48:48.915Z,2.40
2024-05-09T23:51:21.636Z,2.50
2024-05-09T23:53:54.484Z,3.10
2024-05-09T23:56:27.097Z,2.30
2024-05-09T23:58:59.849Z,2.50
